Aérodrome :
LOGIN :

S'inscrire | Disclaimer

   EN    FR    IT 

 










Légende :    VFR   VFR Marginal   IFR   IFR Intensif   IFR Très Intensif
Visi : 
Plafond : 
>= 8 km
>= 3000ft
5 à 8 km
1000 à 3000 ft
1500m à 5 km
500 à 1000 ft
800 à 1500m
200 à 500 ft
< 800m
< 200 ft
Symboles :   Orages  Brouillard  Fortes neiges  Fortes précipitations  Vent > 20 kt
SIGMETs :   Divers  Orages  Givrage  Turbulence  Onde Orograph.  Cendres Volcan.







- Altitude de l'aérodrome : 1197 ft
- Code IATA : SPM


ETAD - Spangdahlem Ab

DERNIER METAR :
  • 231624Z 24006KT 9999 BKN013 OVC020 10/08 A3017 RMK CIG 013V020 BKN V SCT SLP214 TSNO $

METARs EXPIRÉS :
  • 231620Z 24006KT 9999 SCT013 OVC020 10/08 A3016 RMK AO2A CIG 013V020 BKN V SCT SLP211 TSNO $
  • 231605Z 24007KT 9999 FEW013 OVC020 10/08 A3016 RMK AO2A SLP211 TSNO $
  • 231556Z 24008KT 9999 OVC022 10/08 A3016 RMK AO2A OVC V BKN SLP211 T00980084 TSNO $
  • 231542Z AUTO 24010KT 9999 FEW014 BKN022 BKN037 OVC049 10/08 A3016 RMK AO2 CIG 022V036 SLP211 TSNO $
  • 231501Z AUTO 24012KT 9999 FEW017 SCT025 BKN033 OVC046 11/08 A3015 RMK AO2 SLP206 TSNO $
  • 231416Z AUTO 24008KT 9999 BKN021 BKN027 BKN055 11/08 A3014 RMK AO2 CIG 018V025 SLP202 TSNO $
  • 231406Z AUTO 23010KT 9999 BKN018 BKN026 OVC055 11/08 A3014 RMK AO2 CIG 018V028 SLP202 TSNO $
  • 231356Z AUTO 23012KT 9999 SCT017 BKN028 BKN055 11/08 A3014 RMK AO2 CIG 018V028 SLP202 T01100075 TSNO $
  • 231351Z AUTO 25010KT 9999 BKN018 BKN055 11/08 A3014 RMK AO2 SLP202 TSNO $

TAF AMD TAF ETAD
Valide du 23 à 13h jusqu'au 24 à 17h UTC


231257Z 2313/2417 26012KT 9999 BKN020 620507 QNH3013INS
TEMPO 2313/2318 25012G18KT BKN018
BECMG 2317/2318 24009KT 9000 -RA OVC018 620804 QNH3018INS
TEMPO 2320/2403 OVC009
BECMG 2403/2404 22006KT 9000 -RA OVC009 QNH3020INS
TEMPO 2404/2408 OVC006
BECMG 2410/2411 22009KT 6000 -RA BR OVC013 QNH3023INS TX13/2410Z TN08/2403Z
Pas de NOTAMs connus pour ce terrain.



MET'MAP, la Météo Aéronautique d'un coup d'oeil ! - Copyright ORBIFLY Décembre 2007 - Disclaimer

ORBIFLY MET'MAP TEAM :

Programmation & Développement : Alexandra Zaïnal
Conception & Développement : Baudouin d'Aumeries
Co-Programmation & Développement : Marc-Olivier Méhu
Soutien technique & logistique : Manuel Goepfert

Contact : metmap@orbifly.com




SOURCES & CREDITS :

   NOAA